Time;durP1;ratioP1;P1;durP2;ratioP2;P2;SDS_P1;SDS_P2;PMS_P1;PMS_P2;Temp;Humidity;BMP_temperature;BMP_pressure;BME280_temperature;BME280_humidity;BME280_pressure;Samples;Min_cycle;Max_cycle;Signal;HPM_P1;HPM_P2
2022/04/17 00:02:01;;;;;;;3.45;3.10;;;7.00;91.40;;;;;;4945872;29;20072;-78
2022/04/17 00:04:28;;;;;;;6.05;4.15;;;7.10;91.20;;;;;;4950626;29;20015;-76
2022/04/17 00:06:53;;;;;;;6.68;3.35;;;7.10;91.20;;;;;;4945833;29;20549;-77
2022/04/17 00:09:19;;;;;;;5.30;2.67;;;7.20;90.80;;;;;;4951326;28;20028;-77
2022/04/17 00:11:45;;;;;;;4.20;2.80;;;7.00;91.00;;;;;;4950305;29;20027;-77
2022/04/17 00:14:11;;;;;;;5.43;3.17;;;7.00;91.10;;;;;;4952778;29;20114;-77
2022/04/17 00:16:37;;;;;;;4.72;3.05;;;7.00;91.10;;;;;;4949704;29;20063;-77
2022/04/17 00:19:02;;;;;;;4.30;3.15;;;6.90;91.30;;;;;;4945854;29;20035;-77
2022/04/17 00:21:28;;;;;;;4.68;2.65;;;6.90;91.00;;;;;;4949526;29;20030;-76
2022/04/17 00:23:53;;;;;;;8.73;3.00;;;6.80;90.90;;;;;;4946992;29;20023;-77
2022/04/17 00:26:19;;;;;;;5.57;3.22;;;7.00;90.80;;;;;;4936710;29;20031;-77
2022/04/17 00:28:45;;;;;;;3.33;2.63;;;7.00;90.60;;;;;;4954279;29;20035;-77
2022/04/17 00:31:10;;;;;;;3.25;2.60;;;7.10;90.50;;;;;;4954329;29;20470;-77
2022/04/17 00:33:36;;;;;;;2.45;2.10;;;7.10;90.40;;;;;;4946260;29;20051;-77
2022/04/17 00:36:02;;;;;;;3.47;2.35;;;7.10;90.50;;;;;;4954021;28;20031;-78
2022/04/17 00:38:27;;;;;;;3.17;2.90;;;7.00;90.60;;;;;;4946327;29;20027;-77
2022/04/17 00:40:56;;;;;;;4.05;2.78;;;6.90;90.70;;;;;;4946474;29;20046;-77
2022/04/17 00:43:25;;;;;;;4.28;2.60;;;7.00;90.90;;;;;;4928993;29;20050;-77
2022/04/17 00:45:52;;;;;;;2.47;2.25;;;6.90;90.80;;;;;;4945750;29;20019;-78
2022/04/17 00:48:18;;;;;;;3.80;2.33;;;7.00;90.80;;;;;;4928284;29;20506;-76
2022/04/17 00:50:45;;;;;;;3.28;2.35;;;7.00;90.80;;;;;;4930772;29;20120;-77
2022/04/17 00:53:12;;;;;;;3.00;2.50;;;6.90;90.90;;;;;;4945611;29;20076;-77
2022/04/17 00:55:38;;;;;;;4.53;2.30;;;6.90;90.90;;;;;;4958936;28;20033;-77
2022/04/17 00:58:04;;;;;;;4.00;2.75;;;6.90;90.90;;;;;;4947201;29;20126;-77
2022/04/17 01:00:29;;;;;;;2.92;2.42;;;6.80;90.90;;;;;;4949398;29;20031;-77
2022/04/17 01:02:55;;;;;;;3.50;2.75;;;6.80;90.90;;;;;;4950009;29;20049;-77
2022/04/17 01:05:21;;;;;;;3.45;2.22;;;6.80;91.00;;;;;;4950161;29;20019;-78
2022/04/17 01:07:47;;;;;;;2.58;2.10;;;6.70;91.00;;;;;;4949103;29;20076;-77
2022/04/17 01:10:13;;;;;;;7.45;2.40;;;6.60;91.10;;;;;;4943747;29;20035;-77
2022/04/17 01:12:38;;;;;;;2.75;2.40;;;6.60;91.00;;;;;;4949401;29;20027;-77
2022/04/17 01:15:04;;;;;;;2.17;1.98;;;6.60;91.10;;;;;;4944452;29;20425;-76
2022/04/17 01:17:30;;;;;;;2.40;2.17;;;6.60;91.20;;;;;;4948892;29;20106;-77
2022/04/17 01:19:56;;;;;;;4.13;2.72;;;6.60;91.20;;;;;;4946400;29;20417;-76
2022/04/17 01:22:21;;;;;;;3.58;2.20;;;6.40;91.50;;;;;;4945782;28;20030;-77
2022/04/17 01:27:32;;;;;;;2.65;2.30;;;6.30;91.60;;;;;;4946813;29;20067;-77
2022/04/17 01:29:57;;;;;;;2.65;2.45;;;6.30;91.70;;;;;;4945325;29;20027;-77
2022/04/17 01:32:23;;;;;;;5.13;2.10;;;6.30;91.70;;;;;;4942210;29;20367;-77
2022/04/17 01:34:49;;;;;;;4.72;2.42;;;6.10;92.10;;;;;;4949367;29;20548;-77
2022/04/17 01:37:15;;;;;;;3.25;2.30;;;5.90;92.40;;;;;;4945193;29;20031;-78
2022/04/17 01:39:41;;;;;;;2.80;2.40;;;5.90;92.50;;;;;;4927914;29;20027;-78
2022/04/17 01:42:06;;;;;;;4.22;2.50;;;5.80;92.70;;;;;;4928359;29;20055;-77
2022/04/17 01:44:32;;;;;;;2.55;2.28;;;5.70;92.90;;;;;;4945073;29;20241;-77
2022/04/17 01:46:59;;;;;;;3.88;2.38;;;5.70;93.30;;;;;;4945850;29;20491;-77
2022/04/17 01:49:25;;;;;;;3.88;2.10;;;5.70;93.20;;;;;;4945223;29;20019;-78
2022/04/17 01:51:52;;;;;;;3.15;2.53;;;5.80;93.10;;;;;;4947086;29;20490;-77
2022/04/17 01:54:19;;;;;;;2.60;1.80;;;5.70;93.20;;;;;;4929120;29;20035;-77
2022/04/17 01:56:49;;;;;;;6.97;3.05;;;5.70;93.40;;;;;;4947214;29;20027;-77
2022/04/17 01:59:16;;;;;;;3.42;3.03;;;5.70;93.50;;;;;;4928105;29;20061;-77
2022/04/17 02:01:43;;;;;;;3.08;2.65;;;5.60;93.90;;;;;;4947022;29;20044;-78
2022/04/17 02:04:09;;;;;;;2.97;2.67;;;5.70;93.90;;;;;;4928132;29;20110;-77
2022/04/17 02:06:39;;;;;;;2.60;2.22;;;5.80;93.90;;;;;;4948065;29;20034;-77
2022/04/17 02:09:07;;;;;;;3.15;2.35;;;5.80;93.90;;;;;;4945323;29;20027;-77
2022/04/17 02:11:33;;;;;;;2.70;2.50;;;5.80;94.00;;;;;;4953649;29;20026;-78
2022/04/17 02:13:59;;;;;;;2.70;2.33;;;5.80;94.20;;;;;;4948867;29;20027;-76
2022/04/17 02:16:26;;;;;;;3.40;2.40;;;5.70;94.40;;;;;;4952099;29;20545;-77
2022/04/17 02:18:54;;;;;;;4.97;2.35;;;5.70;94.40;;;;;;4952113;29;20086;-76
2022/04/17 02:21:21;;;;;;;3.35;2.58;;;5.60;94.50;;;;;;4929217;29;20405;-77
2022/04/17 02:23:46;;;;;;;2.70;2.50;;;5.50;94.70;;;;;;4933608;29;20020;-76
2022/04/17 02:26:13;;;;;;;3.88;2.50;;;5.50;94.70;;;;;;4955455;29;20540;-76
2022/04/17 02:28:40;;;;;;;3.85;2.42;;;5.40;94.90;;;;;;4954654;29;20027;-75
2022/04/17 02:31:07;;;;;;;3.40;2.78;;;5.50;94.80;;;;;;4930999;29;20039;-76
2022/04/17 02:33:33;;;;;;;2.50;2.22;;;5.40;95.00;;;;;;4932527;29;20490;-77
2022/04/17 02:35:59;;;;;;;2.47;2.28;;;5.50;94.90;;;;;;4954588;29;20027;-77
2022/04/17 02:38:25;;;;;;;3.78;2.60;;;5.40;95.10;;;;;;4945609;29;20096;-77
2022/04/17 02:40:52;;;;;;;5.10;2.35;;;5.40;95.20;;;;;;4940378;29;20042;-76
2022/04/17 02:43:17;;;;;;;5.28;3.22;;;5.40;95.10;;;;;;4934643;29;20114;-76
2022/04/17 02:45:43;;;;;;;4.32;2.30;;;5.40;95.20;;;;;;4951477;29;20055;-75
2022/04/17 02:48:09;;;;;;;2.90;2.60;;;5.30;95.40;;;;;;4952334;29;20429;-77
2022/04/17 02:50:35;;;;;;;3.95;3.10;;;5.30;95.60;;;;;;4933146;29;20273;-76
2022/04/17 02:53:00;;;;;;;3.33;2.90;;;5.20;95.70;;;;;;4952352;29;20093;-76
2022/04/17 02:55:26;;;;;;;5.95;2.40;;;5.20;95.70;;;;;;4948495;29;20086;-77
2022/04/17 02:57:52;;;;;;;5.18;2.40;;;5.20;95.90;;;;;;4949119;29;20034;-76
2022/04/17 03:00:18;;;;;;;2.60;2.38;;;5.10;96.10;;;;;;4931831;29;20437;-78
2022/04/17 03:05:37;;;;;;;6.93;2.83;;;5.00;96.40;;;;;;4944559;29;20078;-77
2022/04/17 03:08:16;;;;;;;4.47;2.88;;;5.10;96.40;;;;;;4927875;29;20550;-76
2022/04/17 03:10:48;;;;;;;2.53;2.33;;;5.10;96.50;;;;;;4950363;29;20079;-77
2022/04/17 03:13:14;;;;;;;2.85;2.38;;;5.00;96.80;;;;;;4964221;28;20065;-76
2022/04/17 03:15:40;;;;;;;3.25;2.65;;;4.80;97.50;;;;;;4949918;29;20032;-77
2022/04/17 03:18:08;;;;;;;2.92;2.55;;;4.60;97.90;;;;;;4946953;29;20379;-77
2022/04/17 03:20:35;;;;;;;6.50;3.03;;;4.70;97.80;;;;;;4950568;29;20083;-76
2022/04/17 03:23:01;;;;;;;3.40;2.90;;;4.70;98.20;;;;;;4951595;28;20024;-76
2022/04/17 03:25:26;;;;;;;4.63;3.25;;;4.60;98.40;;;;;;4957517;29;20016;-77
2022/04/17 03:27:53;;;;;;;3.40;2.95;;;4.50;98.90;;;;;;4947790;29;20023;-77
2022/04/17 03:30:19;;;;;;;5.28;3.15;;;4.50;99.30;;;;;;4948153;29;20100;-76
2022/04/17 03:32:46;;;;;;;3.13;2.60;;;4.30;99.60;;;;;;4947673;29;20030;-77
2022/04/17 03:35:13;;;;;;;2.58;2.35;;;4.30;99.90;;;;;;4949322;29;20393;-77
2022/04/17 03:37:42;;;;;;;5.75;2.70;;;4.30;99.90;;;;;;4937917;29;20489;-77
2022/04/17 03:40:10;;;;;;;2.92;2.65;;;4.40;99.90;;;;;;4949106;28;20445;-77
2022/04/17 03:42:35;;;;;;;3.25;2.95;;;4.50;99.90;;;;;;4955325;29;20074;-77
2022/04/17 03:45:03;;;;;;;3.50;3.20;;;4.60;99.90;;;;;;4947841;29;20023;-76
2022/04/17 03:47:28;;;;;;;3.75;2.95;;;4.70;99.90;;;;;;4947221;29;20119;-77
2022/04/17 03:49:54;;;;;;;3.25;2.92;;;4.70;99.90;;;;;;4932308;29;20114;-77
2022/04/17 03:52:19;;;;;;;4.95;3.22;;;4.80;99.90;;;;;;4947306;29;20163;-77
2022/04/17 03:54:45;;;;;;;3.33;2.65;;;4.70;99.80;;;;;;4948561;29;20063;-77
2022/04/17 03:57:11;;;;;;;5.53;3.45;;;4.70;99.90;;;;;;4929050;29;20047;-77
2022/04/17 03:59:37;;;;;;;5.95;3.97;;;4.70;99.90;;;;;;4949681;29;20035;-77
2022/04/17 04:02:03;;;;;;;3.13;2.83;;;4.50;99.90;;;;;;4928910;29;20083;-77
2022/04/17 04:04:29;;;;;;;4.05;3.47;;;4.60;99.90;;;;;;4950771;29;20016;-77
2022/04/17 04:06:54;;;;;;;3.50;2.58;;;4.50;99.90;;;;;;4945100;29;20519;-76
2022/04/17 04:09:20;;;;;;;3.25;2.70;;;4.40;99.90;;;;;;4951959;29;20122;-77
2022/04/17 04:11:47;;;;;;;3.88;3.47;;;4.40;99.90;;;;;;4951558;29;20020;-78
2022/04/17 04:14:12;;;;;;;3.92;3.17;;;4.40;99.90;;;;;;4944906;29;20394;-77
2022/04/17 04:16:39;;;;;;;3.63;2.92;;;4.20;99.90;;;;;;4950772;29;20034;-77
2022/04/17 04:19:05;;;;;;;3.70;2.92;;;4.20;99.90;;;;;;4929427;29;20047;-76
2022/04/17 04:21:31;;;;;;;4.60;2.85;;;4.20;99.90;;;;;;4954393;28;20521;-76
2022/04/17 04:23:57;;;;;;;4.35;3.75;;;4.10;99.90;;;;;;4953557;28;20110;-77
2022/04/17 04:26:22;;;;;;;4.05;3.08;;;4.10;99.90;;;;;;4949143;28;20389;-76
2022/04/17 04:28:48;;;;;;;3.97;2.90;;;4.20;99.90;;;;;;4947679;29;20030;-77
2022/04/17 04:31:15;;;;;;;3.40;2.83;;;4.20;99.90;;;;;;4951114;29;20035;-77
2022/04/17 04:33:42;;;;;;;6.13;3.38;;;4.30;99.90;;;;;;4943571;29;20387;-77
2022/04/17 04:36:11;;;;;;;3.90;3.50;;;4.20;99.90;;;;;;4951991;29;20024;-77
2022/04/17 04:38:37;;;;;;;3.78;2.80;;;4.20;99.90;;;;;;4926183;29;20576;-78
2022/04/17 04:41:04;;;;;;;3.38;3.08;;;4.10;99.90;;;;;;4935611;29;20573;-77
2022/04/17 04:43:29;;;;;;;5.70;3.13;;;4.10;99.90;;;;;;4947603;29;20110;-77
2022/04/17 04:46:07;;;;;;;3.90;3.50;;;4.30;99.90;;;;;;4954050;29;20058;-79
2022/04/17 04:51:26;;;;;;;3.67;3.38;;;4.90;99.90;;;;;;4950718;29;20078;-78
2022/04/17 04:53:51;;;;;;;3.42;3.13;;;5.50;99.90;;;;;;4951480;29;20103;-77
2022/04/17 04:56:18;;;;;;;4.05;3.65;;;5.70;99.90;;;;;;4943061;28;20051;-77
2022/04/17 04:58:44;;;;;;;5.07;3.35;;;5.80;99.80;;;;;;4951338;29;20501;-76
2022/04/17 05:01:11;;;;;;;4.45;3.30;;;5.90;99.40;;;;;;4946631;29;20039;-77
2022/04/17 05:03:36;;;;;;;3.60;3.30;;;6.20;99.20;;;;;;4928850;29;20067;-77
2022/04/17 05:06:02;;;;;;;4.43;2.72;;;6.40;98.60;;;;;;4945834;29;20028;-77
2022/04/17 05:08:28;;;;;;;3.30;3.00;;;6.60;97.90;;;;;;4928523;29;20070;-78
2022/04/17 05:10:54;;;;;;;4.15;2.72;;;6.80;97.20;;;;;;4948179;29;20067;-77
2022/04/17 05:13:19;;;;;;;3.63;2.95;;;7.00;96.90;;;;;;4945836;29;20102;-77
2022/04/17 05:15:45;;;;;;;7.13;2.90;;;7.20;96.30;;;;;;4947106;29;20023;-77
2022/04/17 05:18:10;;;;;;;3.40;3.10;;;7.70;95.30;;;;;;4945461;29;20434;-77
2022/04/17 05:20:36;;;;;;;8.95;3.33;;;8.40;94.30;;;;;;4950872;28;20031;-78
2022/04/17 05:23:21;;;;;;;3.78;2.80;;;9.20;93.10;;;;;;4954706;28;20027;-78
2022/04/17 05:25:49;;;;;;;3.78;2.70;;;9.60;92.20;;;;;;4936005;29;20019;-78
2022/04/17 05:28:16;;;;;;;4.13;3.22;;;9.50;92.10;;;;;;4926311;29;20073;-77
2022/04/17 05:30:42;;;;;;;3.50;2.80;;;9.70;91.20;;;;;;4954798;29;20365;-76
2022/04/17 05:33:08;;;;;;;3.55;2.65;;;9.50;91.20;;;;;;4946085;29;20524;-77
2022/04/17 05:35:34;;;;;;;2.83;2.55;;;9.90;91.20;;;;;;4946590;29;20102;-77
2022/04/17 05:38:00;;;;;;;3.83;2.67;;;10.10;90.70;;;;;;4947146;29;20111;-77
2022/04/17 05:40:26;;;;;;;4.82;2.55;;;9.80;90.20;;;;;;4945529;29;20019;-78
2022/04/17 05:42:51;;;;;;;3.25;2.80;;;9.80;90.60;;;;;;4947314;29;20027;-78
2022/04/17 05:45:18;;;;;;;3.42;3.13;;;9.50;90.40;;;;;;4927871;29;20023;-78
2022/04/17 05:47:44;;;;;;;3.25;2.90;;;10.60;90.00;;;;;;4948116;29;20027;-77
2022/04/17 05:50:09;;;;;;;3.58;3.08;;;11.40;87.10;;;;;;4950583;29;20520;-77
2022/04/17 05:52:35;;;;;;;3.08;2.78;;;10.80;87.70;;;;;;4930920;29;20042;-76
2022/04/17 05:55:01;;;;;;;5.25;2.55;;;11.10;86.80;;;;;;4944802;29;20059;-77
2022/04/17 05:57:27;;;;;;;3.80;2.58;;;11.00;84.70;;;;;;4948026;29;20034;-78
2022/04/17 05:59:52;;;;;;;3.40;3.03;;;10.90;84.80;;;;;;4946216;29;20649;-77
2022/04/17 06:02:18;;;;;;;2.80;2.60;;;9.70;86.30;;;;;;4935859;29;20015;-76
2022/04/17 06:04:44;;;;;;;2.50;2.28;;;8.50;89.60;;;;;;4946686;29;20111;-78
2022/04/17 06:07:09;;;;;;;3.25;2.95;;;8.20;90.40;;;;;;4932486;29;20028;-76
2022/04/17 06:09:35;;;;;;;2.63;2.38;;;7.90;91.10;;;;;;4946137;29;20108;-77
2022/04/17 06:12:01;;;;;;;3.08;2.47;;;7.70;91.60;;;;;;4927169;29;20087;-76
2022/04/17 06:14:27;;;;;;;3.88;2.70;;;7.70;91.60;;;;;;4945745;29;20508;-77
2022/04/17 06:16:52;;;;;;;3.13;2.92;;;7.70;91.70;;;;;;4927593;29;20034;-76
2022/04/17 06:19:18;;;;;;;3.00;2.80;;;7.60;91.80;;;;;;4928281;29;20020;-76
2022/04/17 06:21:43;;;;;;;3.33;2.50;;;7.50;92.00;;;;;;4951167;29;20032;-77
2022/04/17 06:24:09;;;;;;;4.00;2.53;;;7.50;92.40;;;;;;4952508;29;20102;-77
2022/04/17 06:26:35;;;;;;;7.25;2.47;;;7.60;92.20;;;;;;4945422;29;20020;-77
2022/04/17 06:29:07;;;;;;;4.90;2.65;;;7.60;91.90;;;;;;4947183;29;20031;-77
2022/04/17 06:31:33;;;;;;;3.63;2.60;;;7.70;92.00;;;;;;4945129;29;20485;-78
2022/04/17 06:33:58;;;;;;;4.45;2.40;;;7.80;92.20;;;;;;4944772;29;20028;-77
2022/04/17 06:36:24;;;;;;;5.45;3.13;;;7.80;92.10;;;;;;4945562;29;20090;-77
2022/04/17 06:38:49;;;;;;;2.72;2.42;;;7.90;91.90;;;;;;4959723;28;20031;-77
2022/04/17 06:41:15;;;;;;;4.68;2.90;;;8.10;91.50;;;;;;4946787;29;20058;-77
2022/04/17 06:43:41;;;;;;;2.70;2.05;;;8.20;91.80;;;;;;4954833;28;20022;-77
2022/04/17 06:46:06;;;;;;;2.80;2.58;;;8.40;91.50;;;;;;4933885;29;20123;-77
2022/04/17 06:48:32;;;;;;;3.03;2.67;;;8.50;90.80;;;;;;4941419;29;20031;-77
2022/04/17 06:50:58;;;;;;;2.88;2.67;;;8.50;91.30;;;;;;4951787;29;20402;-77
2022/04/17 06:53:23;;;;;;;2.55;2.20;;;8.50;91.10;;;;;;4944967;29;20501;-77
2022/04/17 06:55:49;;;;;;;4.32;2.25;;;8.60;91.00;;;;;;4944385;29;20023;-77
2022/04/17 06:58:17;;;;;;;5.85;2.70;;;8.70;90.50;;;;;;4946308;29;20401;-77
2022/04/17 07:00:43;;;;;;;3.05;2.65;;;8.70;90.50;;;;;;4947048;29;20015;-77
2022/04/17 07:03:08;;;;;;;4.15;2.70;;;8.90;90.60;;;;;;4931197;29;20019;-78
2022/04/17 07:05:34;;;;;;;5.85;3.22;;;8.90;90.40;;;;;;4945336;29;20031;-75
2022/04/17 07:08:02;;;;;;;2.03;1.92;;;8.90;90.70;;;;;;4947136;29;20181;-77
2022/04/17 07:10:29;;;;;;;2.53;2.33;;;9.00;90.60;;;;;;4928854;29;20408;-76
2022/04/17 07:12:55;;;;;;;2.78;2.05;;;9.10;90.40;;;;;;4928942;29;20032;-77
2022/04/17 07:15:21;;;;;;;2.70;1.80;;;9.10;90.20;;;;;;4946008;29;20024;-77
2022/04/17 07:17:47;;;;;;;3.35;2.17;;;9.10;90.20;;;;;;4935256;29;20058;-77
2022/04/17 07:20:15;;;;;;;2.35;2.10;;;9.20;89.90;;;;;;4942726;29;20054;-77
2022/04/17 07:22:41;;;;;;;4.10;2.58;;;9.40;89.80;;;;;;4935872;29;20023;-77
2022/04/17 07:25:07;;;;;;;4.63;2.40;;;9.30;89.30;;;;;;4954877;29;20054;-77
2022/04/17 07:27:38;;;;;;;2.25;1.85;;;9.50;89.10;;;;;;4933041;29;20481;-77
2022/04/17 07:30:09;;;;;;;2.60;2.20;;;9.60;87.90;;;;;;4947467;29;20032;-78
2022/04/17 07:32:34;;;;;;;3.40;2.20;;;9.50;87.70;;;;;;4932993;29;20161;-77
2022/04/17 07:35:00;;;;;;;2.90;2.13;;;9.60;87.90;;;;;;4951565;29;20506;-77
2022/04/17 07:37:26;;;;;;;3.30;2.30;;;9.80;87.60;;;;;;4946861;29;20482;-78
2022/04/17 07:39:52;;;;;;;3.92;2.15;;;9.80;87.60;;;;;;4949812;29;20059;-77
2022/04/17 07:42:19;;;;;;;3.88;2.50;;;9.90;87.40;;;;;;4955955;29;20042;-78
2022/04/17 07:44:45;;;;;;;2.22;2.03;;;10.10;87.60;;;;;;4945927;29;20046;-77
2022/04/17 07:47:10;;;;;;;2.75;2.28;;;10.20;87.40;;;;;;4945592;29;20454;-77
2022/04/17 07:49:36;;;;;;;3.17;2.35;;;10.40;87.30;;;;;;4949843;29;20019;-77
2022/04/17 07:52:02;;;;;;;2.38;1.88;;;10.50;86.10;;;;;;4947751;29;20033;-77
2022/04/17 07:54:27;;;;;;;2.70;2.00;;;10.40;85.40;;;;;;4950350;29;20023;-77
2022/04/17 07:56:53;;;;;;;5.22;2.30;;;10.40;84.60;;;;;;4947317;29;20481;-77
2022/04/17 07:59:18;;;;;;;2.47;2.20;;;10.40;84.70;;;;;;4946971;29;20078;-78
2022/04/17 08:01:46;;;;;;;2.15;1.65;;;10.50;85.10;;;;;;4947791;29;20457;-78
2022/04/17 08:04:11;;;;;;;2.38;2.17;;;10.50;85.10;;;;;;4964494;28;20038;-76
2022/04/17 08:06:37;;;;;;;2.45;1.95;;;10.70;84.30;;;;;;4949332;29;20167;-77
2022/04/17 08:09:03;;;;;;;2.08;1.80;;;10.70;83.40;;;;;;4951926;29;20401;-77
2022/04/17 08:11:29;;;;;;;2.15;1.77;;;10.80;82.70;;;;;;4949342;29;20020;-79
2022/04/17 08:13:55;;;;;;;2.65;1.73;;;10.80;82.40;;;;;;4930061;29;20027;-77
2022/04/17 08:16:21;;;;;;;1.85;1.75;;;10.90;82.80;;;;;;4948732;29;20389;-78
2022/04/17 08:18:47;;;;;;;3.67;2.10;;;11.10;82.10;;;;;;4956250;28;20071;-78
2022/04/17 08:21:12;;;;;;;2.13;1.50;;;11.20;81.60;;;;;;4961360;29;20118;-77
2022/04/17 08:23:38;;;;;;;3.92;1.65;;;11.30;82.00;;;;;;4954522;29;20416;-77
2022/04/17 08:26:08;;;;;;;2.67;1.67;;;11.30;80.70;;;;;;4951854;29;20102;-77
2022/04/17 08:28:33;;;;;;;4.47;2.10;;;11.40;80.50;;;;;;4937556;29;20030;-78
2022/04/17 08:30:59;;;;;;;1.92;1.60;;;11.50;80.70;;;;;;4945772;29;20028;-78
2022/04/17 08:33:26;;;;;;;2.10;1.85;;;11.60;80.70;;;;;;4944174;29;20024;-77
2022/04/17 08:35:53;;;;;;;2.97;1.70;;;11.60;79.70;;;;;;4948646;29;20055;-76
2022/04/17 08:38:19;;;;;;;1.70;1.55;;;11.50;80.20;;;;;;4943321;29;20047;-77
2022/04/17 08:40:45;;;;;;;2.65;1.95;;;11.50;79.80;;;;;;4948305;29;20113;-78
2022/04/17 08:43:11;;;;;;;2.60;1.88;;;11.60;80.00;;;;;;4946412;29;20055;-77
2022/04/17 08:45:37;;;;;;;2.00;1.73;;;11.70;79.60;;;;;;4946588;29;20383;-77
2022/04/17 08:48:04;;;;;;;2.60;1.75;;;11.70;78.80;;;;;;4945367;29;20050;-77
2022/04/17 08:50:30;;;;;;;1.70;1.50;;;11.80;78.90;;;;;;4947679;29;20106;-77
2022/04/17 08:52:58;;;;;;;3.53;2.33;;;11.70;79.10;;;;;;4954853;29;20034;-77
2022/04/17 08:55:24;;;;;;;1.95;1.45;;;11.90;78.60;;;;;;4950817;29;20039;-77
2022/04/17 08:57:50;;;;;;;1.95;1.75;;;12.10;79.00;;;;;;4948095;29;20097;-77
2022/04/17 09:00:17;;;;;;;4.65;2.17;;;12.20;76.70;;;;;;4940927;29;20358;-78
2022/04/17 09:02:44;;;;;;;4.07;1.70;;;12.10;77.60;;;;;;4935814;29;20027;-78
2022/04/17 09:05:14;;;;;;;4.85;1.63;;;12.30;76.70;;;;;;4952455;29;20445;-77
2022/04/17 09:07:51;;;;;;;3.03;1.85;;;12.30;77.10;;;;;;4945400;29;20031;-77
2022/04/17 09:10:24;;;;;;;2.15;1.42;;;12.30;76.30;;;;;;4948684;29;20112;-77
2022/04/17 09:12:53;;;;;;;1.83;1.55;;;12.40;75.90;;;;;;4933265;29;20513;-77
2022/04/17 09:15:23;;;;;;;3.40;1.40;;;12.30;76.00;;;;;;4954575;29;20122;-78
2022/04/17 09:17:48;;;;;;;2.67;1.80;;;12.50;74.70;;;;;;4961850;28;20026;-77
2022/04/17 09:20:22;;;;;;;1.83;1.50;;;12.50;75.10;;;;;;4958202;29;20035;-77
2022/04/17 09:22:48;;;;;;;3.03;2.10;;;12.60;75.10;;;;;;4926223;29;20030;-76
2022/04/17 09:25:14;;;;;;;3.03;1.42;;;12.80;74.40;;;;;;4937206;29;20351;-77
2022/04/17 09:28:04;;;;;;;3.45;1.65;;;13.00;74.50;;;;;;4949094;29;20027;-78
2022/04/17 09:30:38;;;;;;;2.00;1.45;;;13.20;72.70;;;;;;4941976;29;20031;-78
2022/04/17 09:33:13;;;;;;;2.55;1.27;;;13.20;74.00;;;;;;4947788;29;20119;-78
2022/04/17 09:35:39;;;;;;;2.05;1.20;;;13.20;72.50;;;;;;4946171;29;20051;-77
2022/04/17 09:38:07;;;;;;;4.88;1.35;;;13.10;72.10;;;;;;4951513;29;20106;-77
2022/04/17 09:40:32;;;;;;;2.45;1.25;;;13.10;71.70;;;;;;4933219;29;20027;-77
2022/04/17 09:43:10;;;;;;;1.50;1.02;;;13.20;71.80;;;;;;4936373;29;20034;-77
2022/04/17 09:45:57;;;;;;;2.70;1.20;;;13.20;71.50;;;;;;4946671;28;20023;-77
2022/04/17 09:48:22;;;;;;;1.83;1.20;;;13.40;72.20;;;;;;4954347;29;20027;-77
2022/04/17 09:50:48;;;;;;;1.92;1.30;;;13.30;70.70;;;;;;4930538;29;20033;-76
2022/04/17 09:53:37;;;;;;;2.95;1.77;;;13.20;71.40;;;;;;4946742;29;20031;-77
2022/04/17 09:56:10;;;;;;;4.93;1.50;;;13.30;69.80;;;;;;4948458;29;20095;-75
2022/04/17 09:58:45;;;;;;;2.63;1.52;;;13.20;70.50;;;;;;4936767;29;20461;-77
2022/04/17 10:01:15;;;;;;;3.55;1.70;;;13.30;70.40;;;;;;4928753;29;20023;-75
2022/04/17 10:03:41;;;;;;;1.73;1.45;;;13.50;69.90;;;;;;4930737;29;20095;-76
2022/04/17 10:06:10;;;;;;;1.38;1.10;;;13.60;68.60;;;;;;4946092;29;20127;-75
2022/04/17 10:08:37;;;;;;;2.65;1.15;;;13.80;67.30;;;;;;4948958;29;20062;-76
2022/04/17 10:11:04;;;;;;;2.80;1.65;;;13.70;67.80;;;;;;4944780;29;20028;-76
2022/04/17 10:13:31;;;;;;;1.85;1.30;;;13.90;67.50;;;;;;4946544;29;20058;-76
2022/04/17 10:15:59;;;;;;;1.20;1.10;;;13.90;67.40;;;;;;4956962;28;20055;-76
2022/04/17 10:18:31;;;;;;;3.28;1.17;;;13.90;66.70;;;;;;4937104;29;20065;-77
2022/04/17 10:20:57;;;;;;;1.83;1.10;;;13.90;67.00;;;;;;4955660;29;20031;-76
2022/04/17 10:23:26;;;;;;;2.00;0.80;;;14.20;66.70;;;;;;4951675;29;20383;-76
2022/04/17 10:25:54;;;;;;;1.35;0.98;;;14.30;66.30;;;;;;4954129;29;20034;-76
2022/04/17 10:28:21;;;;;;;2.50;1.05;;;14.20;64.90;;;;;;4950032;29;20012;-75
2022/04/17 10:30:59;;;;;;;1.58;1.33;;;14.30;65.80;;;;;;4950048;29;20023;-77
2022/04/17 10:33:33;;;;;;;2.50;1.27;;;14.40;65.20;;;;;;4951124;29;20063;-76
2022/04/17 10:36:48;;;;;;;2.80;1.13;;;14.50;64.70;;;;;;4952991;29;20094;-76
2022/04/17 10:39:20;;;;;;;1.60;1.20;;;14.40;62.90;;;;;;4913309;29;20521;-76
2022/04/17 10:41:46;;;;;;;1.75;1.10;;;14.30;62.40;;;;;;4941695;29;20031;-76
2022/04/17 10:44:12;;;;;;;3.70;2.10;;;14.40;62.20;;;;;;4947627;29;20028;-77
2022/04/17 10:46:50;;;;;;;3.35;1.60;;;14.60;62.50;;;;;;4946138;29;20024;-76
2022/04/17 10:49:21;;;;;;;2.20;1.35;;;14.70;62.40;;;;;;4936903;29;20419;-77
2022/04/17 10:51:55;;;;;;;1.50;1.40;;;14.60;62.80;;;;;;4960599;28;20023;-75
2022/04/17 10:54:21;;;;;;;2.00;1.10;;;14.60;63.00;;;;;;4943215;29;20023;-74
2022/04/17 10:56:56;;;;;;;1.88;1.20;;;14.90;62.50;;;;;;4951971;29;20154;-76
2022/04/17 10:59:22;;;;;;;1.17;0.95;;;14.90;59.70;;;;;;4952102;29;20057;-76
2022/04/17 11:02:22;;;;;;;2.38;1.45;;;14.70;60.30;;;;;;4948191;29;20020;-76
2022/04/17 11:04:53;;;;;;;1.23;0.90;;;14.80;60.10;;;;;;4953669;29;20019;-77
2022/04/17 11:07:26;;;;;;;1.13;0.88;;;14.80;60.00;;;;;;4948721;29;20020;-77
2022/04/17 11:10:17;;;;;;;3.22;1.00;;;15.00;59.70;;;;;;4934439;29;20093;-76
2022/04/17 11:12:50;;;;;;;1.30;0.93;;;15.10;59.30;;;;;;4959010;28;20394;-77
2022/04/17 11:15:15;;;;;;;1.58;1.20;;;15.10;58.70;;;;;;4951110;28;20147;-76
2022/04/17 11:17:42;;;;;;;2.13;0.95;;;15.10;59.20;;;;;;4965727;28;20023;-76
2022/04/17 11:20:09;;;;;;;1.05;0.95;;;15.10;59.60;;;;;;4952520;29;20038;-76
2022/04/17 11:22:37;;;;;;;1.27;0.90;;;15.40;60.10;;;;;;4948487;29;20079;-75
2022/04/17 11:25:11;;;;;;;1.83;1.20;;;15.70;59.50;;;;;;4949284;29;20024;-76
2022/04/17 11:27:46;;;;;;;1.00;0.90;;;15.60;58.70;;;;;;4947778;29;20023;-77
2022/04/17 11:30:14;;;;;;;2.25;1.27;;;15.60;59.00;;;;;;4949460;29;20082;-77
2022/04/17 11:32:40;;;;;;;3.30;1.20;;;15.70;57.00;;;;;;4950008;29;20113;-77
2022/04/17 11:35:08;;;;;;;1.65;1.20;;;15.50;57.70;;;;;;4953527;29;20138;-78
2022/04/17 11:37:34;;;;;;;1.48;1.38;;;15.60;58.60;;;;;;4944262;29;20037;-75
2022/04/17 11:40:14;;;;;;;1.40;1.30;;;15.60;58.30;;;;;;4944465;29;20027;-76
2022/04/17 11:42:42;;;;;;;1.65;1.38;;;15.80;58.90;;;;;;4927085;29;20483;-76
2022/04/17 11:45:09;;;;;;;1.90;1.10;;;15.90;58.70;;;;;;4945562;29;20055;-77
2022/04/17 11:47:42;;;;;;;1.50;1.02;;;15.90;58.70;;;;;;4952015;29;20477;-77
2022/04/17 11:50:10;;;;;;;1.30;1.20;;;15.90;58.20;;;;;;4953663;29;20489;-75
2022/04/17 11:52:36;;;;;;;1.55;0.75;;;15.80;58.20;;;;;;4943861;29;20030;-75
2022/04/17 11:55:02;;;;;;;2.83;0.82;;;16.00;58.00;;;;;;4946206;29;20082;-77
2022/04/17 11:57:28;;;;;;;1.05;0.90;;;16.10;57.70;;;;;;4934053;29;20024;-77
2022/04/17 11:59:55;;;;;;;1.45;0.90;;;16.00;57.70;;;;;;4946277;29;20094;-75
2022/04/17 12:02:23;;;;;;;1.70;1.20;;;16.20;57.50;;;;;;4934755;29;20020;-77
2022/04/17 12:04:50;;;;;;;1.90;1.00;;;16.30;58.20;;;;;;4934378;28;20050;-76
2022/04/17 12:07:24;;;;;;;4.13;1.10;;;16.60;56.30;;;;;;4945154;29;20544;-77
2022/04/17 12:09:50;;;;;;;1.88;1.20;;;16.50;56.30;;;;;;4954674;29;20566;-77
2022/04/17 12:12:17;;;;;;;1.10;0.90;;;16.40;56.60;;;;;;4947573;28;20117;-76
2022/04/17 12:14:44;;;;;;;2.65;1.02;;;16.50;57.00;;;;;;4948171;28;20400;-76
2022/04/17 12:17:10;;;;;;;1.77;1.10;;;16.50;57.40;;;;;;4939152;28;20031;-77
2022/04/17 12:19:36;;;;;;;1.73;1.10;;;16.30;57.20;;;;;;4961477;28;20033;-77
2022/04/17 12:22:11;;;;;;;3.17;1.40;;;16.40;56.90;;;;;;4946538;29;20480;-77
2022/04/17 12:24:37;;;;;;;1.33;1.10;;;16.00;56.60;;;;;;4933598;29;20019;-77
2022/04/17 12:27:04;;;;;;;2.40;1.27;;;15.50;57.30;;;;;;4937616;29;20546;-76
2022/04/17 12:29:30;;;;;;;1.27;0.90;;;15.70;57.40;;;;;;4946899;29;20401;-77
2022/04/17 12:31:56;;;;;;;1.70;1.25;;;15.80;57.20;;;;;;4947066;29;20426;-77
2022/04/17 12:34:23;;;;;;;1.63;0.98;;;15.90;56.70;;;;;;4946339;29;20118;-76
2022/04/17 12:36:49;;;;;;;2.42;0.90;;;16.00;57.70;;;;;;4947484;29;20068;-75
2022/04/17 12:39:15;;;;;;;2.40;0.80;;;16.20;57.20;;;;;;4946357;29;20031;-76
2022/04/17 12:41:49;;;;;;;2.97;1.00;;;16.40;57.50;;;;;;4948629;29;20015;-76
2022/04/17 12:44:30;;;;;;;1.65;1.00;;;16.50;57.00;;;;;;4945082;29;20540;-76
2022/04/17 12:47:09;;;;;;;2.40;0.80;;;16.60;55.70;;;;;;4947536;29;20027;-76
2022/04/17 12:49:36;;;;;;;1.33;0.98;;;16.20;56.60;;;;;;4952057;28;20099;-75
2022/04/17 12:52:03;;;;;;;2.38;1.00;;;16.00;56.80;;;;;;4936340;29;20086;-76
2022/04/17 12:54:33;;;;;;;2.03;1.15;;;16.00;57.20;;;;;;4947811;29;20102;-77
2022/04/17 12:57:10;;;;;;;2.33;1.00;;;15.90;56.40;;;;;;4950623;29;20024;-77
2022/04/17 12:59:45;;;;;;;1.58;0.98;;;16.00;56.90;;;;;;4945618;29;20058;-76
2022/04/17 13:02:22;;;;;;;1.48;0.90;;;16.20;57.00;;;;;;4926662;29;20027;-77
2022/04/17 13:04:52;;;;;;;2.70;0.82;;;16.30;55.60;;;;;;4951068;29;20070;-75